x

Cape Edgecumbe - 25nm Ssw Of Cape Edgecumbe, Ak (46084) Wave Buoy

3:50am - Sat 30th May 2015 All times are AKDT. -8 hours from GMT.

  • Sig Wave height 4.6ft
  • Peak Period 7s
  • Average Period 5s
  • Wind
    16mph, 20mph gusts
  • Sea Temp 50°f
  • Air Temp 48°f
  • Sea Pressure 1017.9mb
  • Cape Edgecumbe - 25nm Ssw Of Cape Edgecumbe, Ak
  • Cape Edgecumbe - 25nm Ssw Of Cape Edgecumbe, Ak

More Historic Weather Station data

Upgrade to MSW Pro to gain access to the past 30 days of data for over 8000 Wavebouys and Weather Stations around the globe.

Join Pro

Comparision Forecast

View Surf forecast
   
Sat 05/30 3:50am 4.5ft 7s 5s 16 20 mph 1017.9mb 50f 48f
2:50am 4.5ft 6s 5s 16 18 mph 1018.1mb 50f 48f
1:50am 5ft 7s 5s 18 20 mph 1018.3mb 50f 48f
12:50am 4.5ft 7s 5s 18 20 mph 1018.6mb 50f 48f
Fri 05/29 11:50pm 5ft 10s 5s 20 22 mph 1018.6mb 50f 48f
10:50pm  -   -   -  20 22 mph 1018.8mb 50f 49f
9:50pm  -   -   -  20 22 mph 1019.2mb 51f 49f
8:50pm  -   -   -  20 25 mph 1019.4mb 50f 49f
7:50pm 5.5ft 10s 5s 18 22 mph 1019.8mb 50f 49f
6:50pm 5.5ft 10s 5s 18 22 mph 1020mb 50f 49f
5:50pm  -   -   -  18 22 mph 1020.2mb 50f 49f
4:50pm  -   -   -  18 22 mph 1020.6mb 50f 49f
3:50pm 5.5ft 10s 5s 20 25 mph 1020.8mb 50f 49f
2:50pm  -   -   -  20
mph
- - 50f
1:50pm 5.5ft 10s 5s 20 22 mph 1021.4mb 50f 49f
12:50pm 6ft 9s 6s 18 22 mph 1021.6mb 50f 49f
11:50am 5.5ft 10s 5s 18 22 mph 1021.6mb 50f 49f
10:50am 5.5ft 10s 5s 18 22 mph 1021.8mb 50f 49f
9:50am  -   -   -  18 22 mph 1022.1mb 50f 49f
8:50am 6ft 7s 5s 18 22 mph 1022.4mb 50f 49f
7:50am  -   -   -  18 22 mph 1022.8mb 50f 49f
6:50am 6ft 6s 5s 20 25 mph 1022.6mb 50f 49f
5:50am 6.5ft 6s 6s 20 22 mph 1022.9mb 50f 49f
4:50am  -   -   -  20 25 mph 1023mb 50f 49f
3:50am 6ft 6s 5s 20 25 mph 1023.3mb 50f 49f
2:50am  -   -   -  20 25 mph 1023.5mb 50f 49f
1:50am 6ft 7s 5s 20 25 mph 1023.5mb 50f 49f
12:50am  -   -   -  20 25 mph 1023.7mb 50f 49f
Thu 05/28 11:50pm 6ft 7s 5s 20 25 mph 1024mb 50f 49f
10:50pm  -   -   -  20 22 mph 1024.2mb 50f 49f
9:50pm 6ft 7s 5s 22 27 mph 1024.2mb 51f 49f
8:50pm 6ft 7s 5s 22 27 mph 1024.1mb 51f 49f
7:50pm  -   -   -  25 29 mph 1024.2mb 51f 50f
6:50pm 6.5ft 7s 5s 27 34 mph 1024mb 51f 50f
5:50pm 6ft 6s 5s 22 27 mph 1024.4mb 51f 50f
4:50pm 6.5ft 8s 5s 27 31 mph 1024.3mb 51f 51f
3:50pm  -   -   -  25 29 mph 1024.4mb 51f 51f
2:50pm 6ft 7s 5s 22 27 mph 1024.6mb 51f 50f
1:50pm  -   -   -  20 22 mph 1024.8mb 51f 50f
12:50pm 6ft 8s 5s 18 22 mph 1025.1mb 51f 50f
11:50am 6.5ft 7s 5s 22 25 mph 1024.8mb 51f 50f
10:50am  -   -   -  20 27 mph 1025mb 51f 50f
9:50am 6.5ft 6s 5s 25 29 mph 1024.7mb 51f 49f
8:50am 6ft 6s 5s 22 27 mph 1025mb 51f 49f
7:50am 7ft 8s 5s 25 29 mph 1024.9mb 51f 49f
6:50am 6.5ft 8s 5s 22 29 mph 1025.1mb 51f 49f
5:50am 6.5ft 7s 5s 22 29 mph 1025.4mb 51f 49f
4:50am  -   -   -  22 27 mph 1025.2mb 51f 50f
3:50am 6ft 7s 5s 20 25 mph 1025.7mb 51f 50f
2:50am 6ft 8s 5s 20 22 mph 1025.7mb 51f 50f
1:50am  -   -   -  20 25 mph 1025.8mb 51f 50f
12:50am  -   -   -  20 25 mph 1025.5mb 51f 50f
Wed 05/27 11:50pm  -   -   -  18 22 mph 1025.9mb 51f 50f
10:50pm 5.5ft 7s 5s 18 22 mph 1025.8mb 51f 50f
9:50pm 6ft 7s 5s 18 22 mph 1025.6mb 51f 50f
8:50pm 6.5ft 7s 5s 20 25 mph 1025.5mb 52f 50f
7:50pm 6.5ft 7s  -  20 25 mph 1025.6mb 52f 50f
6:50pm 6ft 7s 5s 20 25 mph 1026mb 52f 49f
5:50pm  -   -   -  18 22 mph 1026mb 52f 50f
4:50pm 6.5ft 6s 5s 20 22 mph 1026.2mb 52f 50f
3:50pm 6ft 6s 5s 20 25 mph 1026.6mb 52f 50f
1:50pm 6ft 6s 5s 20 25 mph 1026.4mb 51f 50f
12:50pm 5.5ft 6s 5s 18 22 mph 1026mb 51f 50f
11:50am 5.5ft 6s 5s 18 20 mph 1025.7mb 51f 50f
10:50am  -   -   -  18 20 mph 1025.3mb 51f 50f
9:50am 5.5ft 13s 5s 18 22 mph 1024.9mb 51f 50f
8:50am 6ft 10s 5s 20 25 mph 1024.5mb 51f 50f
7:50am 6ft 12s 6s 18 22 mph 1024.1mb 51f 50f
6:50am 5.5ft 10s 5s 18 22 mph 1023.9mb 51f 50f
5:50am  -   -   -  20 25 mph 1023.7mb 51f 50f
4:50am  -   -   -  22 27 mph 1023.4mb 51f 50f
3:50am 5.5ft 11s 6s 16 20 mph 1023.5mb 51f 49f
2:50am 4.5ft 10s 6s 16 20 mph 1023.3mb 51f 50f
1:50am  -   -   -  13 18 mph 1023mb 51f 50f
12:50am  -   -   -  16 18 mph 1022.8mb 51f 50f
Tue 05/26 11:50pm  -   -   -  13 16 mph 1022.6mb 51f 50f
10:50pm  -   -   -  16 18 mph 1022.7mb 51f 50f
9:50pm 4.5ft 13s 7s 13 18 mph 1022.5mb 51f 50f
8:50pm  -   -   -  13 16 mph 1022mb 51f 50f
7:50pm 5ft 12s 7s 13 16 mph 1022mb 51f 50f
6:50pm 4.5ft 13s 6s 13 16 mph 1021.9mb 51f 51f
5:50pm 4.5ft 12s 6s 16 20 mph 1022mb 51f 50f
4:50pm 5ft 12s 7s 13 16 mph 1022.2mb 51f 51f
3:50pm 5ft 13s 7s 11 13 mph 1022.3mb 51f 51f
2:50pm 4.5ft 12s 7s 16 18 mph 1021.9mb 51f 50f
1:50pm 5ft 12s 8s 11 13 mph 1022.5mb 51f 50f